createdAt,value
2019-04-03T03:03:27.511Z,12.20
2019-04-03T03:05:59.285Z,12.20
2019-04-03T03:08:27.880Z,12.20
2019-04-03T03:10:57.147Z,12.20
2019-04-03T03:13:26.502Z,12.20
2019-04-03T03:15:56.959Z,12.20
2019-04-03T03:18:27.246Z,12.10
2019-04-03T03:20:57.515Z,12.10
2019-04-03T03:23:27.333Z,12.00
2019-04-03T03:25:57.258Z,12.00
2019-04-03T03:28:27.357Z,11.90
2019-04-03T03:31:03.022Z,11.80
2019-04-03T03:33:36.289Z,11.70
2019-04-03T03:36:02.684Z,11.70
2019-04-03T03:38:32.495Z,11.60
2019-04-03T03:41:02.100Z,11.60
2019-04-03T03:43:32.149Z,11.50
2019-04-03T03:46:01.714Z,11.50
2019-04-03T03:48:31.689Z,11.50
2019-04-03T03:51:03.100Z,11.50
2019-04-03T03:53:32.991Z,11.40
2019-04-03T03:56:02.914Z,11.40
2019-04-03T03:58:32.656Z,11.40
2019-04-03T04:01:02.050Z,11.40
2019-04-03T04:03:31.750Z,11.40
2019-04-03T04:06:01.128Z,11.40
2019-04-03T04:08:30.681Z,11.40
2019-04-03T04:11:02.058Z,11.40
2019-04-03T04:13:31.554Z,11.40
2019-04-03T04:16:03.928Z,11.40
2019-04-03T04:18:33.419Z,11.40
2019-04-03T04:21:03.692Z,11.40
2019-04-03T04:23:34.088Z,11.40
2019-04-03T04:26:03.984Z,11.40
2019-04-03T04:28:33.250Z,11.40
2019-04-03T04:31:02.801Z,11.40
2019-04-03T04:33:32.229Z,11.30
2019-04-03T04:36:01.588Z,11.30
2019-04-03T04:38:31.115Z,11.40
2019-04-03T04:41:01.860Z,11.40
2019-04-03T04:43:31.392Z,11.50
2019-04-03T04:46:19.981Z,11.40
2019-04-03T04:48:49.639Z,11.40
2019-04-03T04:51:21.268Z,11.40
2019-04-03T04:53:50.539Z,11.50
2019-04-03T04:56:19.834Z,11.40
2019-04-03T04:58:49.252Z,11.40
2019-04-03T05:01:18.809Z,11.50
2019-04-03T05:03:48.136Z,11.50
2019-04-03T05:06:17.479Z,11.50
2019-04-03T05:08:47.003Z,11.50
2019-04-03T05:11:16.264Z,11.50
2019-04-03T05:13:46.861Z,11.50
2019-04-03T05:16:19.785Z,11.50
2019-04-03T05:18:48.411Z,11.50
2019-04-03T05:21:18.015Z,11.60
2019-04-03T05:23:47.654Z,11.60
2019-04-03T05:26:17.233Z,11.50
2019-04-03T05:28:55.687Z,11.50
2019-04-03T05:31:17.534Z,11.50
2019-04-03T05:33:46.794Z,11.60
2019-04-03T05:36:17.754Z,11.60
2019-04-03T05:38:47.329Z,11.60
2019-04-03T05:41:16.677Z,11.60
2019-04-03T05:43:45.946Z,11.70
2019-04-03T05:46:15.218Z,11.70
2019-04-03T05:48:45.892Z,11.70
2019-04-03T05:51:15.470Z,11.60
2019-04-03T05:53:45.180Z,11.60
2019-04-03T05:56:15.710Z,11.70
2019-04-03T05:58:55.499Z,11.70
2019-04-03T06:01:15.959Z,11.70
2019-04-03T06:03:45.804Z,11.70
2019-04-03T06:06:15.531Z,11.70
2019-04-03T06:08:44.927Z,11.80
2019-04-03T06:11:14.392Z,11.80
2019-04-03T06:13:47.542Z,11.80
2019-04-03T06:16:16.870Z,11.90
2019-04-03T06:18:47.637Z,12.00
2019-04-03T06:21:17.482Z,12.10
2019-04-03T06:23:46.750Z,12.20
2019-04-03T06:26:16.014Z,12.20
2019-04-03T06:28:47.602Z,12.30
2019-04-03T06:31:16.250Z,12.30
2019-04-03T06:33:45.524Z,12.40
2019-04-03T06:36:16.955Z,12.50
2019-04-03T06:38:45.738Z,12.60
2019-04-03T06:41:15.100Z,12.60
2019-04-03T06:43:44.617Z,12.60
2019-04-03T06:46:14.002Z,12.60
2019-04-03T06:48:43.274Z,12.60
2019-04-03T06:51:15.649Z,12.60
2019-04-03T06:53:43.834Z,12.60
2019-04-03T06:56:13.091Z,12.60
2019-04-03T06:58:44.624Z,12.60
2019-04-03T07:01:13.322Z,12.70
2019-04-03T07:03:42.598Z,12.80
2019-04-03T07:06:13.080Z,12.90
2019-04-03T07:08:44.303Z,13.00
2019-04-03T07:11:22.627Z,13.10
2019-04-03T07:13:44.894Z,13.10
2019-04-03T07:16:14.330Z,13.20
2019-04-03T07:18:43.606Z,13.20
2019-04-03T07:21:12.882Z,13.30
2019-04-03T07:23:42.332Z,13.40
2019-04-03T07:26:11.924Z,13.60
2019-04-03T07:28:42.354Z,13.60
2019-04-03T07:31:11.946Z,13.60
2019-04-03T07:33:41.245Z,13.60
2019-04-03T07:36:11.666Z,13.60
2019-04-03T07:38:41.194Z,13.50
2019-04-03T07:41:10.505Z,13.50
2019-04-03T07:43:40.745Z,13.60
2019-04-03T07:46:10.002Z,13.60
2019-04-03T07:48:39.299Z,13.60
2019-04-03T07:51:08.616Z,13.60
2019-04-03T07:53:39.050Z,13.50
2019-04-03T07:56:08.319Z,13.60
2019-04-03T07:58:37.941Z,13.70
2019-04-03T08:01:09.553Z,13.70
2019-04-03T08:03:38.233Z,13.80
2019-04-03T08:06:07.763Z,13.80
2019-04-03T08:08:37.139Z,13.90
2019-04-03T08:11:06.424Z,13.90
2019-04-03T08:13:38.140Z,13.90
2019-04-03T08:16:07.217Z,14.00
2019-04-03T08:18:36.554Z,14.00
2019-04-03T08:21:06.006Z,14.00
2019-04-03T08:23:36.729Z,14.10
2019-04-03T08:26:06.581Z,14.30
2019-04-03T08:28:35.842Z,14.30
2019-04-03T08:31:05.611Z,14.40
2019-04-03T08:33:34.995Z,14.40
2019-04-03T08:36:06.723Z,14.50
2019-04-03T08:38:35.720Z,14.60
2019-04-03T08:41:05.245Z,14.70
2019-04-03T08:43:35.643Z,14.80
2019-04-03T08:46:05.883Z,14.80
2019-04-03T08:48:35.228Z,14.80
2019-04-03T08:51:04.930Z,14.70
2019-04-03T08:53:38.176Z,14.70
2019-04-03T08:56:06.195Z,14.60
2019-04-03T08:58:35.466Z,14.60
2019-04-03T09:01:05.394Z,14.60
2019-04-03T09:03:34.642Z,14.80
2019-04-03T09:06:04.360Z,15.00
2019-04-03T09:08:33.750Z,15.10
2019-04-03T09:11:05.062Z,15.10
2019-04-03T09:13:33.986Z,15.00
2019-04-03T09:16:03.293Z,15.00
2019-04-03T09:18:32.595Z,15.10
2019-04-03T09:21:01.932Z,15.10
2019-04-03T09:23:31.189Z,14.90
2019-04-03T09:26:02.601Z,14.80
2019-04-03T09:28:31.668Z,14.70
2019-04-03T09:31:01.305Z,14.70
2019-04-03T09:33:30.703Z,14.70
2019-04-03T09:36:00.034Z,14.70
2019-04-03T09:38:29.689Z,14.60
2019-04-03T09:40:59.055Z,14.60
2019-04-03T09:43:28.318Z,14.60
2019-04-03T09:45:59.291Z,14.60
2019-04-03T09:48:28.792Z,14.50
2019-04-03T09:50:58.180Z,14.40
2019-04-03T09:53:27.466Z,14.50
2019-04-03T09:55:57.011Z,14.60
2019-04-03T09:58:26.311Z,14.30
2019-04-03T10:00:55.619Z,14.20
2019-04-03T10:03:24.882Z,14.00
2019-04-03T10:05:54.165Z,13.80
2019-04-03T10:08:23.411Z,13.40
2019-04-03T10:10:52.706Z,13.10
2019-04-03T10:13:24.832Z,13.00
2019-04-03T10:15:53.714Z,12.70
2019-04-03T10:18:23.031Z,12.30
2019-04-03T10:20:52.291Z,11.90
2019-04-03T10:23:22.192Z,11.50
2019-04-03T10:25:53.503Z,11.30
2019-04-03T10:28:22.754Z,11.30
2019-04-03T10:30:53.534Z,11.20
2019-04-03T10:33:23.280Z,11.00
2019-04-03T10:35:52.546Z,10.90
2019-04-03T10:38:21.988Z,11.20
2019-04-03T10:40:51.926Z,11.10
2019-04-03T10:43:21.256Z,10.80
2019-04-03T10:45:51.601Z,10.70
2019-04-03T10:48:20.862Z,10.80
2019-04-03T10:50:50.486Z,11.20
2019-04-03T10:53:20.690Z,11.60
2019-04-03T10:55:50.182Z,11.70
2019-04-03T10:58:19.466Z,11.30
2019-04-03T11:00:50.258Z,11.50
2019-04-03T11:03:19.652Z,11.80
2019-04-03T11:05:49.006Z,11.90
2019-04-03T11:08:18.286Z,11.50
2019-04-03T11:10:47.551Z,11.60
2019-04-03T11:13:16.828Z,11.70
2019-04-03T11:15:46.086Z,11.70
2019-04-03T11:18:15.359Z,12.20
2019-04-03T11:20:44.626Z,12.30
2019-04-03T11:23:14.134Z,12.50
2019-04-03T11:25:45.803Z,12.70
2019-04-03T11:28:14.831Z,12.30
2019-04-03T11:30:44.252Z,12.00
2019-04-03T11:33:14.073Z,11.90
2019-04-03T11:35:43.838Z,12.10
2019-04-03T11:38:20.994Z,12.40
2019-04-03T11:40:44.300Z,12.90
2019-04-03T11:43:13.561Z,13.10
2019-04-03T11:45:43.106Z,13.20
2019-04-03T11:48:12.392Z,13.30
2019-04-03T11:50:42.032Z,13.30
2019-04-03T11:53:11.533Z,13.50
2019-04-03T11:55:41.943Z,13.60
2019-04-03T11:58:12.936Z,13.50
2019-04-03T12:00:44.803Z,13.40
2019-04-03T12:03:14.436Z,13.50
2019-04-03T12:05:44.005Z,13.90
2019-04-03T12:08:13.742Z,13.70
2019-04-03T12:10:43.003Z,13.10
2019-04-03T12:13:13.582Z,13.00
2019-04-03T12:15:43.297Z,13.20
2019-04-03T12:18:12.873Z,13.30
2019-04-03T12:20:44.885Z,13.40
2019-04-03T12:23:13.282Z,13.40
2019-04-03T12:25:42.582Z,13.70
2019-04-03T12:28:11.998Z,13.90
2019-04-03T12:30:41.605Z,13.60
2019-04-03T12:33:11.181Z,13.10
2019-04-03T12:35:42.238Z,13.30
2019-04-03T12:38:11.492Z,13.60
2019-04-03T12:40:41.182Z,13.60
2019-04-03T12:43:10.761Z,13.30
2019-04-03T12:45:40.402Z,12.90
2019-04-03T12:48:09.999Z,12.70
2019-04-03T12:50:40.061Z,12.40
2019-04-03T12:53:09.459Z,12.10
2019-04-03T12:55:41.615Z,12.30
2019-04-03T12:58:09.972Z,12.50
2019-04-03T13:00:39.327Z,12.60
2019-04-03T13:03:08.820Z,12.30
2019-04-03T13:05:38.561Z,12.50
2019-04-03T13:08:09.022Z,12.60
2019-04-03T13:10:42.591Z,12.80
2019-04-03T13:13:10.092Z,12.70
2019-04-03T13:15:39.470Z,12.50
2019-04-03T13:18:08.759Z,12.60
2019-04-03T13:20:38.251Z,12.70
2019-04-03T13:23:07.515Z,12.90
2019-04-03T13:25:36.850Z,12.70
2019-04-03T13:28:06.260Z,12.40
2019-04-03T13:30:35.767Z,12.10
2019-04-03T13:33:07.034Z,12.00
2019-04-03T13:35:36.004Z,12.10
2019-04-03T13:38:05.278Z,12.20
2019-04-03T13:40:37.805Z,12.50
2019-04-03T13:43:06.299Z,13.00
2019-04-03T13:45:35.730Z,13.20
2019-04-03T13:48:05.449Z,13.30
2019-04-03T13:50:35.091Z,13.40
2019-04-03T13:53:05.099Z,13.50
2019-04-03T13:55:36.613Z,13.80
2019-04-03T13:58:05.808Z,13.90
2019-04-03T14:00:35.267Z,14.10
2019-04-03T14:03:04.752Z,14.10
2019-04-03T14:05:35.262Z,13.80
2019-04-03T14:08:06.638Z,13.50
2019-04-03T14:10:36.105Z,13.40
2019-04-03T14:13:05.885Z,13.40
2019-04-03T14:15:35.503Z,13.40
2019-04-03T14:18:07.463Z,13.20
2019-04-03T14:20:36.016Z,13.10
2019-04-03T14:23:06.644Z,12.60
2019-04-03T14:25:38.064Z,12.50
2019-04-03T14:28:06.989Z,12.50
2019-04-03T14:30:36.223Z,12.70
2019-04-03T14:33:05.559Z,12.90
2019-04-03T14:35:47.529Z,12.90
2019-04-03T14:38:05.794Z,13.00
2019-04-03T14:40:35.056Z,13.00
2019-04-03T14:43:04.393Z,13.20
2019-04-03T14:45:33.654Z,13.30
2019-04-03T14:48:02.936Z,13.80
2019-04-03T14:50:32.194Z,14.10
2019-04-03T14:53:01.542Z,14.40
2019-04-03T14:55:45.842Z,14.50
2019-04-03T14:58:05.871Z,14.70
2019-04-03T15:00:35.154Z,14.60
2019-04-03T15:03:05.002Z,14.60
2019-04-03T15:05:34.667Z,14.50
2019-04-03T15:08:05.546Z,14.20
2019-04-03T15:10:35.103Z,13.90
2019-04-03T15:13:04.568Z,13.60
2019-04-03T15:15:33.838Z,13.30
2019-04-03T15:18:03.377Z,13.20
2019-04-03T15:20:33.828Z,13.10
2019-04-03T15:23:04.771Z,12.90
2019-04-03T15:25:34.406Z,12.60
2019-04-03T15:28:03.877Z,12.30
2019-04-03T15:30:33.283Z,11.90
2019-04-03T15:33:02.572Z,11.80
2019-04-03T15:35:33.017Z,11.70
2019-04-03T15:38:02.983Z,11.70
2019-04-03T15:40:33.214Z,11.60
2019-04-03T15:43:02.523Z,11.60
2019-04-03T15:45:32.074Z,11.30
2019-04-03T15:48:01.610Z,11.10
2019-04-03T15:50:33.318Z,10.90
2019-04-03T15:53:01.984Z,10.80
2019-04-03T15:55:32.005Z,10.60
2019-04-03T15:58:01.435Z,10.60
2019-04-03T16:00:33.883Z,10.70
2019-04-03T16:03:02.502Z,10.70
2019-04-03T16:05:33.920Z,10.40
2019-04-03T16:08:03.243Z,10.10
2019-04-03T16:10:32.818Z,10.20
2019-04-03T16:13:02.153Z,10.10
2019-04-03T16:15:31.952Z,10.10
2019-04-03T16:18:01.476Z,10.10
2019-04-03T16:20:31.260Z,10.00
2019-04-03T16:23:02.629Z,10.00
2019-04-03T16:25:32.529Z,10.00
2019-04-03T16:28:02.850Z,9.80
2019-04-03T16:30:32.387Z,9.70
2019-04-03T16:33:03.446Z,9.60
2019-04-03T16:35:32.602Z,9.60
2019-04-03T16:38:02.235Z,9.70
2019-04-03T16:40:32.357Z,9.60
2019-04-03T16:43:01.810Z,9.40
2019-04-03T16:45:31.510Z,9.30
2019-04-03T16:48:00.939Z,9.10
2019-04-03T16:50:30.455Z,9.00
2019-04-03T16:52:59.787Z,8.90
2019-04-03T16:55:29.055Z,8.80
2019-04-03T16:57:58.404Z,8.80
2019-04-03T17:00:27.756Z,8.90
2019-04-03T17:02:57.104Z,8.90
2019-04-03T17:05:26.743Z,8.90
2019-04-03T17:07:56.268Z,8.90
2019-04-03T17:10:26.008Z,8.90
2019-04-03T17:12:56.478Z,8.80
2019-04-03T17:15:25.911Z,8.80
2019-04-03T17:17:55.238Z,8.60
2019-04-03T17:20:24.881Z,8.50
2019-04-03T17:22:55.209Z,8.40
2019-04-03T17:25:26.871Z,8.40
2019-04-03T17:27:58.177Z,8.40
2019-04-03T17:30:26.465Z,8.30
2019-04-03T17:32:56.412Z,8.30
2019-04-03T17:35:25.819Z,8.20
2019-04-03T17:37:55.062Z,8.20
2019-04-03T17:40:24.478Z,8.20
2019-04-03T17:42:53.754Z,8.20
2019-04-03T17:45:23.780Z,8.20
2019-04-03T17:47:54.050Z,8.10
2019-04-03T17:50:23.417Z,8.10
2019-04-03T17:52:52.963Z,8.10
2019-04-03T17:55:22.243Z,8.20
2019-04-03T17:57:51.575Z,8.30
2019-04-03T18:00:22.838Z,8.20
2019-04-03T18:02:52.108Z,8.10
2019-04-03T18:05:21.495Z,8.10
2019-04-03T18:07:50.774Z,7.90
2019-04-03T18:10:20.570Z,8.00
2019-04-03T18:12:52.389Z,7.90
2019-04-03T18:15:21.100Z,7.90
2019-04-03T18:17:50.359Z,8.00
2019-04-03T18:20:20.730Z,8.00
2019-04-03T18:22:50.995Z,8.00
2019-04-03T18:25:21.883Z,8.10
2019-04-03T18:27:51.172Z,8.10
2019-04-03T18:30:20.966Z,8.20
2019-04-03T18:32:50.247Z,8.20
2019-04-03T18:35:19.480Z,8.30
2019-04-03T18:37:49.490Z,8.30
2019-04-03T18:40:18.754Z,8.30
2019-04-03T18:42:50.217Z,8.10
2019-04-03T18:45:25.625Z,8.10
2019-04-03T18:47:51.160Z,8.10
2019-04-03T18:50:20.662Z,8.20
2019-04-03T18:52:50.025Z,8.20
2019-04-03T18:55:19.282Z,8.20
2019-04-03T18:57:50.250Z,8.20
2019-04-03T19:00:20.230Z,8.20
2019-04-03T19:02:49.495Z,8.10
2019-04-03T19:05:19.103Z,8.00
2019-04-03T19:07:48.368Z,8.00
2019-04-03T19:10:18.426Z,7.90
2019-04-03T19:12:48.105Z,7.80
2019-04-03T19:15:17.434Z,7.80
2019-04-03T19:17:59.346Z,7.90
2019-04-03T19:20:19.178Z,8.00
2019-04-03T19:22:48.446Z,8.10
2019-04-03T19:25:18.019Z,8.10
2019-04-03T19:27:49.652Z,8.10
2019-04-03T19:30:18.771Z,8.10
2019-04-03T19:32:48.118Z,8.10
2019-04-03T19:35:17.720Z,8.10
2019-04-03T19:37:46.988Z,8.10
2019-04-03T19:40:16.240Z,8.10
2019-04-03T19:42:48.678Z,8.00
2019-04-03T19:45:16.743Z,8.00
2019-04-03T19:47:46.014Z,8.10
2019-04-03T19:50:15.514Z,8.10
2019-04-03T19:52:44.889Z,8.10
2019-04-03T19:55:14.550Z,8.20
2019-04-03T19:57:43.833Z,8.10
2019-04-03T20:00:13.427Z,8.10
2019-04-03T20:02:43.580Z,8.10
2019-04-03T20:05:14.203Z,8.10
2019-04-03T20:07:43.662Z,8.10
2019-04-03T20:10:13.958Z,8.10
2019-04-03T20:12:43.288Z,8.10
2019-04-03T20:15:12.919Z,8.10
2019-04-03T20:17:42.162Z,8.10
2019-04-03T20:20:12.075Z,8.10
2019-04-03T20:22:42.581Z,8.00
2019-04-03T20:25:14.504Z,8.10
2019-04-03T20:27:45.556Z,8.00
2019-04-03T20:30:14.303Z,8.00
2019-04-03T20:32:43.558Z,8.00
2019-04-03T20:35:12.818Z,8.00
2019-04-03T20:37:43.975Z,8.00
2019-04-03T20:40:13.374Z,8.10
2019-04-03T20:42:42.602Z,8.10
2019-04-03T20:45:11.867Z,8.10
2019-04-03T20:47:41.134Z,8.10
2019-04-03T20:50:11.043Z,8.00
2019-04-03T20:52:40.302Z,8.00
2019-04-03T20:55:09.734Z,8.00
2019-04-03T20:57:39.000Z,7.90
2019-04-03T21:00:13.282Z,7.90
2019-04-03T21:02:42.548Z,7.90
2019-04-03T21:05:12.150Z,8.00
2019-04-03T21:07:41.414Z,8.00
2019-04-03T21:10:10.927Z,7.90
2019-04-03T21:12:40.188Z,7.90
2019-04-03T21:15:13.451Z,7.80
2019-04-03T21:17:42.007Z,7.80
2019-04-03T21:20:11.515Z,7.80
2019-04-03T21:22:40.859Z,7.90
2019-04-03T21:25:10.294Z,7.90
2019-04-03T21:27:40.121Z,7.80
2019-04-03T21:30:11.150Z,7.80
2019-04-03T21:32:40.440Z,7.80
2019-04-03T21:35:10.159Z,7.70
2019-04-03T21:37:40.525Z,7.80
2019-04-03T21:40:10.482Z,7.80
2019-04-03T21:42:39.746Z,7.90
2019-04-03T21:45:09.087Z,7.80
2019-04-03T21:47:38.360Z,7.80
2019-04-03T21:50:08.157Z,7.80
2019-04-03T21:52:37.432Z,7.70
2019-04-03T21:55:08.075Z,7.70
2019-04-03T21:57:38.395Z,7.70
2019-04-03T22:00:13.196Z,7.70
2019-04-03T22:02:44.975Z,7.70
2019-04-03T22:05:13.723Z,7.80
2019-04-03T22:07:42.990Z,7.80
2019-04-03T22:10:12.315Z,7.80
2019-04-03T22:12:41.586Z,7.70
2019-04-03T22:15:13.709Z,7.60
2019-04-03T22:17:43.687Z,7.60
2019-04-03T22:20:13.266Z,7.50
2019-04-03T22:22:42.530Z,7.40
2019-04-03T22:25:11.866Z,7.50
2019-04-03T22:27:42.844Z,7.50
2019-04-03T22:30:12.799Z,7.50
2019-04-03T22:32:42.343Z,7.60
2019-04-03T22:35:11.674Z,7.50
2019-04-03T22:37:40.946Z,7.60
2019-04-03T22:40:10.968Z,7.50
2019-04-03T22:42:40.318Z,7.50
2019-04-03T22:45:09.678Z,7.50
2019-04-03T22:47:38.942Z,7.50
2019-04-03T22:50:29.066Z,7.50
2019-04-03T22:52:58.331Z,7.50
2019-04-03T22:55:27.867Z,7.40
2019-04-03T22:57:57.134Z,7.50
2019-04-03T23:00:26.406Z,7.50
2019-04-03T23:02:55.667Z,7.50
2019-04-03T23:05:24.936Z,7.50
2019-04-03T23:07:54.203Z,7.50
2019-04-03T23:10:23.470Z,7.50
2019-04-03T23:12:54.354Z,7.50
2019-04-03T23:15:23.675Z,7.50
2019-04-03T23:17:53.183Z,7.50
2019-04-03T23:20:22.713Z,7.40
2019-04-03T23:22:52.086Z,7.40
2019-04-03T23:25:21.514Z,7.40
2019-04-03T23:27:50.774Z,7.40
2019-04-03T23:30:20.702Z,7.40
2019-04-03T23:32:50.122Z,7.30
2019-04-03T23:35:20.559Z,7.30
2019-04-03T23:37:50.442Z,7.30
2019-04-03T23:40:19.839Z,7.30
2019-04-03T23:42:49.411Z,7.30
2019-04-03T23:45:19.634Z,7.30
2019-04-03T23:47:48.904Z,7.40
2019-04-03T23:50:18.166Z,7.30
2019-04-03T23:52:47.430Z,7.40
2019-04-03T23:55:16.766Z,7.40
2019-04-03T23:57:46.041Z,7.50
